createdAt,value
2018-02-25T00:01:30.816Z,-2.07
2018-02-25T00:03:58.524Z,-2.18
2018-02-25T00:06:26.097Z,-2.04
2018-02-25T00:08:53.642Z,-1.90
2018-02-25T00:11:21.124Z,-2.06
2018-02-25T00:13:48.645Z,-2.13
2018-02-25T00:16:16.227Z,-2.01
2018-02-25T00:18:43.888Z,-2.03
2018-02-25T00:21:11.378Z,-2.00
2018-02-25T00:23:39.008Z,-2.10
2018-02-25T00:26:06.954Z,-2.26
2018-02-25T00:28:34.458Z,-2.34
2018-02-25T00:31:02.016Z,-2.26
2018-02-25T00:33:29.502Z,-2.28
2018-02-25T00:35:56.998Z,-2.14
2018-02-25T00:38:24.566Z,-2.14
2018-02-25T00:40:52.077Z,-2.17
2018-02-25T00:43:19.602Z,-2.18
2018-02-25T00:45:47.102Z,-2.37
2018-02-25T00:48:14.636Z,-2.49
2018-02-25T00:50:42.134Z,-2.48
2018-02-25T00:53:09.671Z,-2.47
2018-02-25T00:55:37.158Z,-2.38
2018-02-25T00:58:04.677Z,-2.33
2018-02-25T01:00:32.157Z,-2.26
2018-02-25T01:02:59.677Z,-2.15
2018-02-25T01:05:27.201Z,-2.07
2018-02-25T01:07:54.731Z,-2.10
2018-02-25T01:10:22.235Z,-2.05
2018-02-25T01:12:49.834Z,-2.23
2018-02-25T01:15:17.629Z,-2.41
2018-02-25T01:17:45.151Z,-2.49
2018-02-25T01:20:12.652Z,-2.54
2018-02-25T01:22:40.218Z,-2.33
2018-02-25T01:25:07.778Z,-2.36
2018-02-25T01:27:35.420Z,-2.50
2018-02-25T01:30:03.053Z,-2.53
2018-02-25T01:32:30.587Z,-2.51
2018-02-25T01:34:58.158Z,-2.53
2018-02-25T01:37:25.763Z,-2.65
2018-02-25T01:39:53.255Z,-2.74
2018-02-25T01:42:20.778Z,-2.71
2018-02-25T01:44:48.310Z,-2.51
2018-02-25T01:47:15.825Z,-2.50
2018-02-25T01:49:43.365Z,-2.61
2018-02-25T01:52:10.959Z,-2.89
2018-02-25T01:54:38.460Z,-2.88
2018-02-25T01:57:06.574Z,-2.76
2018-02-25T01:59:34.430Z,-2.77
2018-02-25T02:02:01.960Z,-2.85
2018-02-25T02:04:29.465Z,-3.00
2018-02-25T02:06:56.974Z,-3.01
2018-02-25T02:09:24.923Z,-3.05
2018-02-25T02:11:52.454Z,-3.16
2018-02-25T02:14:19.941Z,-3.32
2018-02-25T02:16:47.486Z,-3.16
2018-02-25T02:19:14.988Z,-3.22
2018-02-25T02:21:42.493Z,-3.16
2018-02-25T02:24:10.137Z,-3.08
2018-02-25T02:26:37.651Z,-3.14
2018-02-25T02:29:05.801Z,-3.33
2018-02-25T02:31:33.330Z,-3.37
2018-02-25T02:34:00.827Z,-3.45
2018-02-25T02:36:28.560Z,-3.45
2018-02-25T02:38:56.356Z,-3.42
2018-02-25T02:41:23.870Z,-3.47
2018-02-25T02:43:51.357Z,-3.56
2018-02-25T02:46:18.873Z,-3.52
2018-02-25T02:48:46.385Z,-3.52
2018-02-25T02:51:13.996Z,-3.57
2018-02-25T02:53:41.510Z,-3.47
2018-02-25T02:56:09.003Z,-3.42
2018-02-25T02:58:36.526Z,-3.39
2018-02-25T03:01:04.024Z,-3.49
2018-02-25T03:03:31.576Z,-3.72
2018-02-25T03:05:59.148Z,-3.69
2018-02-25T03:08:26.655Z,-3.57
2018-02-25T03:10:54.219Z,-3.55
2018-02-25T03:13:22.018Z,-3.53
2018-02-25T03:15:49.544Z,-3.53
2018-02-25T03:18:17.026Z,-3.64
2018-02-25T03:20:44.528Z,-3.58
2018-02-25T03:23:12.113Z,-3.52
2018-02-25T03:25:39.643Z,-3.61
2018-02-25T03:28:07.239Z,-3.74
2018-02-25T03:30:34.793Z,-3.70
2018-02-25T03:33:02.302Z,-3.54
2018-02-25T03:35:29.787Z,-3.57
2018-02-25T03:37:57.375Z,-3.69
2018-02-25T03:40:24.877Z,-3.61
2018-02-25T03:42:52.474Z,-3.54
2018-02-25T03:45:20.008Z,-3.47
2018-02-25T03:47:47.501Z,-3.64
2018-02-25T03:50:15.046Z,-3.70
2018-02-25T03:52:42.546Z,-3.74
2018-02-25T03:55:10.088Z,-3.67
2018-02-25T03:57:37.564Z,-3.86
2018-02-25T04:00:05.990Z,-3.87
2018-02-25T04:02:33.535Z,-4.04
2018-02-25T04:05:01.128Z,-4.13
2018-02-25T04:07:28.623Z,-4.26
2018-02-25T04:09:56.098Z,-4.26
2018-02-25T04:12:23.689Z,-4.20
2018-02-25T04:14:51.221Z,-4.22
2018-02-25T04:17:18.720Z,-4.17
2018-02-25T04:19:46.193Z,-4.25
2018-02-25T04:22:13.700Z,-4.25
2018-02-25T04:24:41.198Z,-4.35
2018-02-25T04:27:08.683Z,-4.36
2018-02-25T04:29:36.200Z,-4.37
2018-02-25T04:32:03.733Z,-4.28
2018-02-25T04:34:31.254Z,-4.30
2018-02-25T04:36:58.743Z,-4.29
2018-02-25T04:39:26.249Z,-4.36
2018-02-25T04:41:53.725Z,-4.43
2018-02-25T04:44:21.239Z,-4.33
2018-02-25T04:46:49.540Z,-4.53
2018-02-25T04:49:17.032Z,-4.67
2018-02-25T04:51:44.539Z,-4.66
2018-02-25T04:54:12.050Z,-4.69
2018-02-25T04:56:39.600Z,-4.71
2018-02-25T04:59:07.079Z,-4.85
2018-02-25T05:01:34.674Z,-4.76
2018-02-25T05:04:02.304Z,-4.80
2018-02-25T05:06:29.801Z,-4.92
2018-02-25T05:08:57.325Z,-5.00
2018-02-25T05:11:24.816Z,-4.97
2018-02-25T05:13:52.413Z,-4.86
2018-02-25T05:16:19.969Z,-4.96
2018-02-25T05:18:47.474Z,-5.11
2018-02-25T05:21:14.994Z,-5.02
2018-02-25T05:23:42.481Z,-4.98
2018-02-25T05:26:10.027Z,-5.07
2018-02-25T05:28:37.513Z,-5.13
2018-02-25T05:31:05.030Z,-5.13
2018-02-25T05:33:32.533Z,-5.03
2018-02-25T05:36:00.087Z,-5.00
2018-02-25T05:38:27.576Z,-5.05
2018-02-25T05:40:55.092Z,-5.08
2018-02-25T05:43:22.759Z,-4.99
2018-02-25T05:45:50.345Z,-4.93
2018-02-25T05:48:17.924Z,-5.07
2018-02-25T05:50:45.499Z,-5.12
2018-02-25T05:53:13.122Z,-5.03
2018-02-25T05:55:40.731Z,-5.07
2018-02-25T05:58:08.305Z,-5.09
2018-02-25T06:00:35.939Z,-4.99
2018-02-25T06:03:03.458Z,-4.82
2018-02-25T06:05:30.968Z,-4.76
2018-02-25T06:07:58.447Z,-4.81
2018-02-25T06:10:26.047Z,-4.73
2018-02-25T06:12:53.567Z,-4.69
2018-02-25T06:15:21.090Z,-4.80
2018-02-25T06:17:48.681Z,-4.82
2018-02-25T06:20:16.214Z,-4.86
2018-02-25T06:22:44.317Z,-4.95
2018-02-25T06:25:12.287Z,-4.87
2018-02-25T06:27:39.825Z,-4.85
2018-02-25T06:30:07.308Z,-4.82
2018-02-25T06:32:34.813Z,-4.67
2018-02-25T06:35:02.353Z,-4.54
2018-02-25T06:37:29.863Z,-4.58
2018-02-25T06:39:57.344Z,-4.60
2018-02-25T06:42:25.114Z,-4.63
2018-02-25T06:44:53.405Z,-4.60
2018-02-25T06:47:20.946Z,-4.63
2018-02-25T06:49:48.473Z,-4.55
2018-02-25T06:52:15.962Z,-4.57
2018-02-25T06:54:43.538Z,-4.42
2018-02-25T06:57:11.033Z,-4.45
2018-02-25T06:59:38.612Z,-4.41
2018-02-25T07:02:06.190Z,-4.35
2018-02-25T07:04:33.677Z,-4.28
2018-02-25T07:07:01.193Z,-4.14
2018-02-25T07:09:28.682Z,-3.34
2018-02-25T07:11:56.195Z,-2.36
2018-02-25T07:14:23.688Z,-1.33
2018-02-25T07:16:51.953Z,-0.67
2018-02-25T07:19:19.433Z,-0.27
2018-02-25T07:21:46.979Z,0.32
2018-02-25T07:24:14.493Z,0.32
2018-02-25T07:26:41.973Z,0.69
2018-02-25T07:29:09.491Z,1.30
2018-02-25T07:31:36.984Z,1.37
2018-02-25T07:34:04.503Z,1.65
2018-02-25T07:36:31.982Z,2.08
2018-02-25T07:38:59.584Z,2.27
2018-02-25T07:41:27.076Z,2.60
2018-02-25T07:43:54.694Z,3.28
2018-02-25T07:46:22.311Z,3.25
2018-02-25T07:48:49.918Z,3.49
2018-02-25T07:51:17.489Z,3.85
2018-02-25T07:53:45.148Z,3.88
2018-02-25T07:56:12.667Z,4.27
2018-02-25T07:58:40.362Z,4.94
2018-02-25T08:01:08.039Z,4.99
2018-02-25T08:03:35.536Z,5.13
2018-02-25T08:06:03.069Z,5.25
2018-02-25T08:08:30.583Z,6.08
2018-02-25T08:10:58.064Z,6.37
2018-02-25T08:13:25.608Z,5.48
2018-02-25T08:15:53.112Z,5.36
2018-02-25T08:18:20.606Z,5.54
2018-02-25T08:20:48.146Z,5.77
2018-02-25T08:23:15.708Z,6.21
2018-02-25T08:25:43.653Z,6.43
2018-02-25T08:28:11.238Z,6.51
2018-02-25T08:30:38.808Z,6.37
2018-02-25T08:33:06.315Z,7.16
2018-02-25T08:35:34.754Z,7.86
2018-02-25T08:38:02.262Z,8.70
2018-02-25T08:40:30.437Z,8.39
2018-02-25T08:42:57.922Z,8.56
2018-02-25T08:45:25.446Z,7.96
2018-02-25T08:47:52.995Z,8.02
2018-02-25T08:50:20.516Z,8.40
2018-02-25T08:52:48.070Z,9.43
2018-02-25T08:55:15.897Z,9.85
2018-02-25T08:57:43.472Z,10.50
2018-02-25T09:00:11.072Z,10.38
2018-02-25T09:02:38.787Z,11.30
2018-02-25T09:05:06.292Z,10.76
2018-02-25T09:07:34.418Z,10.61
2018-02-25T09:10:01.947Z,11.11
2018-02-25T09:12:30.027Z,11.21
2018-02-25T09:14:57.655Z,10.34
2018-02-25T09:17:25.245Z,10.43
2018-02-25T09:19:52.773Z,9.73
2018-02-25T09:22:20.380Z,10.32
2018-02-25T09:24:47.927Z,10.87
2018-02-25T09:27:15.446Z,11.22
2018-02-25T09:29:42.952Z,11.19
2018-02-25T09:32:10.480Z,10.65
2018-02-25T09:34:38.241Z,10.30
2018-02-25T09:37:05.818Z,11.36
2018-02-25T09:39:33.396Z,11.42
2018-02-25T09:42:00.952Z,11.31
2018-02-25T09:44:28.526Z,11.56
2018-02-25T09:46:56.050Z,11.46
2018-02-25T09:49:23.714Z,11.85
2018-02-25T09:51:51.270Z,12.72
2018-02-25T09:54:18.985Z,12.93
2018-02-25T09:56:46.496Z,13.51
2018-02-25T09:59:14.052Z,13.41
2018-02-25T10:01:41.570Z,13.14
2018-02-25T10:04:09.080Z,13.05
2018-02-25T10:06:36.617Z,13.55
2018-02-25T10:09:04.102Z,13.38
2018-02-25T10:11:31.633Z,13.67
2018-02-25T10:13:59.128Z,13.05
2018-02-25T10:16:26.648Z,13.59
2018-02-25T10:18:54.141Z,14.11
2018-02-25T10:21:21.658Z,14.85
2018-02-25T10:23:50.001Z,14.50
2018-02-25T10:26:17.558Z,15.54
2018-02-25T10:28:45.259Z,16.02
2018-02-25T10:31:12.752Z,15.83
2018-02-25T10:33:40.283Z,15.64
2018-02-25T10:36:07.798Z,15.57
2018-02-25T10:38:36.615Z,15.52
2018-02-25T10:41:04.179Z,15.88
2018-02-25T10:43:31.777Z,17.12
2018-02-25T10:45:59.338Z,17.53
2018-02-25T10:48:26.903Z,16.79
2018-02-25T10:50:54.463Z,16.22
2018-02-25T10:53:21.993Z,17.40
2018-02-25T10:55:49.510Z,17.00
2018-02-25T10:58:16.999Z,17.09
2018-02-25T11:03:39.214Z,17.48
2018-02-25T11:06:06.738Z,18.24
2018-02-25T11:08:34.254Z,18.52
2018-02-25T11:11:01.782Z,17.98
2018-02-25T11:13:29.263Z,17.39
2018-02-25T11:15:56.776Z,17.85
2018-02-25T11:18:24.289Z,18.57
2018-02-25T11:20:51.834Z,17.80
2018-02-25T11:23:19.485Z,17.32
2018-02-25T11:25:46.997Z,17.24
2018-02-25T11:28:14.514Z,17.85
2018-02-25T11:30:42.000Z,18.86
2018-02-25T11:33:09.565Z,18.30
2018-02-25T11:35:37.071Z,18.98
2018-02-25T11:38:04.577Z,18.04
2018-02-25T11:40:32.091Z,18.54
2018-02-25T11:42:59.572Z,19.34
2018-02-25T11:45:27.090Z,19.61
2018-02-25T11:47:54.582Z,19.44
2018-02-25T11:50:22.329Z,19.07
2018-02-25T11:52:49.819Z,19.71
2018-02-25T11:55:17.387Z,19.84
2018-02-25T11:57:44.867Z,19.89
2018-02-25T12:00:12.402Z,20.39
2018-02-25T12:02:39.926Z,20.21
2018-02-25T12:05:07.512Z,19.58
2018-02-25T12:07:35.141Z,19.38
2018-02-25T12:10:02.747Z,19.94
2018-02-25T12:12:30.351Z,20.12
2018-02-25T12:14:59.611Z,19.09
2018-02-25T12:17:25.594Z,19.52
2018-02-25T12:19:53.130Z,20.20
2018-02-25T12:22:20.619Z,20.82
2018-02-25T12:24:48.147Z,20.91
2018-02-25T12:27:15.633Z,19.55
2018-02-25T12:29:43.134Z,18.70
2018-02-25T12:32:10.627Z,18.81
2018-02-25T12:34:38.162Z,19.65
2018-02-25T12:37:05.666Z,18.60
2018-02-25T12:39:33.167Z,18.62
2018-02-25T12:42:00.754Z,18.47
2018-02-25T12:44:28.251Z,18.81
2018-02-25T12:46:55.775Z,18.83
2018-02-25T12:49:23.303Z,19.31
2018-02-25T12:51:50.861Z,19.56
2018-02-25T12:54:18.357Z,18.76
2018-02-25T12:56:45.851Z,18.70
2018-02-25T12:59:13.395Z,18.57
2018-02-25T13:01:41.021Z,17.59
2018-02-25T13:04:08.630Z,17.22
2018-02-25T13:06:36.151Z,16.88
2018-02-25T13:09:03.680Z,16.84
2018-02-25T13:11:31.254Z,16.16
2018-02-25T13:13:58.810Z,15.69
2018-02-25T13:16:26.439Z,14.69
2018-02-25T13:18:53.936Z,14.69
2018-02-25T13:21:21.651Z,13.66
2018-02-25T13:23:49.157Z,13.04
2018-02-25T13:26:16.696Z,12.32
2018-02-25T13:28:44.201Z,12.18
2018-02-25T13:31:11.729Z,11.76
2018-02-25T13:33:39.258Z,11.08
2018-02-25T13:36:06.783Z,10.54
2018-02-25T13:38:34.545Z,10.31
2018-02-25T13:41:02.039Z,9.97
2018-02-25T13:43:29.549Z,10.11
2018-02-25T13:45:57.050Z,10.49
2018-02-25T13:48:24.576Z,10.16
2018-02-25T13:50:52.080Z,10.88
2018-02-25T13:53:19.640Z,11.50
2018-02-25T13:55:47.188Z,10.74
2018-02-25T13:58:14.762Z,10.61
2018-02-25T14:00:42.340Z,10.42
2018-02-25T14:03:09.974Z,10.50
2018-02-25T14:05:37.564Z,10.97
2018-02-25T14:08:05.152Z,11.59
2018-02-25T14:10:32.797Z,10.98
2018-02-25T14:13:00.376Z,10.20
2018-02-25T14:15:27.914Z,9.59
2018-02-25T14:17:55.601Z,9.53
2018-02-25T14:20:23.128Z,9.16
2018-02-25T14:22:50.630Z,8.67
2018-02-25T14:25:18.148Z,8.02
2018-02-25T14:27:45.657Z,7.69
2018-02-25T14:30:13.192Z,7.05
2018-02-25T14:32:40.692Z,6.73
2018-02-25T14:35:08.183Z,6.21
2018-02-25T14:37:36.282Z,6.31
2018-02-25T14:40:03.771Z,6.24
2018-02-25T14:42:31.400Z,5.91
2018-02-25T14:44:58.959Z,5.73
2018-02-25T14:47:26.607Z,5.64
2018-02-25T14:49:54.240Z,5.61
2018-02-25T14:52:21.771Z,5.54
2018-02-25T14:54:49.282Z,5.45
2018-02-25T14:57:16.768Z,4.99
2018-02-25T14:59:44.315Z,4.78
2018-02-25T15:02:11.849Z,4.90
2018-02-25T15:04:39.427Z,4.68
2018-02-25T15:07:06.999Z,4.53
2018-02-25T15:09:34.497Z,4.39
2018-02-25T15:12:02.010Z,4.36
2018-02-25T15:14:29.486Z,4.35
2018-02-25T15:16:57.016Z,4.46
2018-02-25T15:19:24.545Z,4.41
2018-02-25T15:21:52.019Z,4.34
2018-02-25T15:24:19.570Z,4.49
2018-02-25T15:26:47.173Z,4.48
2018-02-25T15:29:14.694Z,3.88
2018-02-25T15:31:42.289Z,3.52
2018-02-25T15:34:09.802Z,3.37
2018-02-25T15:36:37.353Z,3.35
2018-02-25T15:39:04.903Z,3.09
2018-02-25T15:41:32.416Z,2.91
2018-02-25T15:44:00.070Z,2.97
2018-02-25T15:46:27.754Z,3.08
2018-02-25T15:48:55.299Z,3.17
2018-02-25T15:51:22.816Z,2.72
2018-02-25T15:53:50.354Z,2.31
2018-02-25T15:56:17.934Z,2.07
2018-02-25T15:58:45.509Z,1.92
2018-02-25T16:01:13.056Z,1.92
2018-02-25T16:03:40.618Z,1.72
2018-02-25T16:06:08.292Z,1.55
2018-02-25T16:08:35.780Z,1.39
2018-02-25T16:11:03.305Z,1.34
2018-02-25T16:13:30.834Z,1.17
2018-02-25T16:15:58.804Z,1.08
2018-02-25T16:18:26.328Z,0.98
2018-02-25T16:20:53.985Z,0.76
2018-02-25T16:23:21.487Z,0.73
2018-02-25T16:25:49.098Z,0.60
2018-02-25T16:28:17.289Z,0.52
2018-02-25T16:30:44.786Z,0.48
2018-02-25T16:33:12.397Z,0.44
2018-02-25T16:35:39.886Z,0.45
2018-02-25T16:38:07.508Z,0.33
2018-02-25T16:40:35.003Z,0.21
2018-02-25T16:43:02.541Z,0.07
2018-02-25T16:45:30.038Z,0.14
2018-02-25T16:47:57.828Z,-0.02
2018-02-25T16:50:25.334Z,-0.03
2018-02-25T16:52:52.838Z,-0.07
2018-02-25T16:55:20.370Z,-0.02
2018-02-25T16:57:47.868Z,0.06
2018-02-25T17:00:15.454Z,0.03
2018-02-25T17:02:43.403Z,-0.10
2018-02-25T17:05:10.945Z,-0.14
2018-02-25T17:07:38.476Z,-0.20
2018-02-25T17:10:06.181Z,-0.26
2018-02-25T17:12:33.727Z,-0.16
2018-02-25T17:15:01.380Z,-0.16
2018-02-25T17:17:28.945Z,-0.12
2018-02-25T17:19:56.452Z,-0.22
2018-02-25T17:22:23.999Z,-0.28
2018-02-25T17:24:51.525Z,-0.12
2018-02-25T17:27:19.078Z,0.06
2018-02-25T17:29:46.598Z,0.07
2018-02-25T17:32:14.191Z,0.09
2018-02-25T17:34:41.782Z,-0.16
2018-02-25T17:37:09.278Z,-0.39
2018-02-25T17:39:36.821Z,-0.46
2018-02-25T17:42:04.485Z,-0.28
2018-02-25T17:44:32.501Z,-0.13
2018-02-25T17:47:00.498Z,-0.08
2018-02-25T17:49:28.155Z,-0.02
2018-02-25T17:51:55.706Z,0.11
2018-02-25T17:54:23.319Z,0.13
2018-02-25T17:56:51.006Z,0.06
2018-02-25T17:59:18.657Z,0.01
2018-02-25T18:01:46.282Z,0.02
2018-02-25T18:04:13.819Z,-0.06
2018-02-25T18:06:43.266Z,-0.32
2018-02-25T18:09:10.801Z,-0.32
2018-02-25T18:11:38.313Z,-0.09
2018-02-25T18:14:07.294Z,0.03
2018-02-25T18:16:34.810Z,0.12
2018-02-25T18:19:02.397Z,0.17
2018-02-25T18:21:29.897Z,0.24
2018-02-25T18:23:57.438Z,0.16
2018-02-25T18:26:24.979Z,0.04
2018-02-25T18:28:52.496Z,-0.07
2018-02-25T18:31:20.051Z,0.05
2018-02-25T18:33:47.713Z,0.19
2018-02-25T18:36:15.317Z,0.23
2018-02-25T18:38:42.843Z,0.32
2018-02-25T18:41:10.376Z,0.37
2018-02-25T18:43:37.856Z,0.36
2018-02-25T18:46:05.401Z,0.32
2018-02-25T18:48:32.955Z,0.27
2018-02-25T18:51:00.507Z,0.37
2018-02-25T18:53:28.062Z,0.38
2018-02-25T18:55:55.607Z,0.31
2018-02-25T18:58:23.183Z,0.30
2018-02-25T19:00:50.729Z,0.31
2018-02-25T19:03:18.310Z,0.29
2018-02-25T19:05:45.829Z,0.20
2018-02-25T19:08:13.331Z,0.17
2018-02-25T19:10:40.909Z,0.20
2018-02-25T19:13:08.427Z,0.22
2018-02-25T19:15:35.980Z,0.25
2018-02-25T19:18:03.521Z,0.20
2018-02-25T19:20:32.038Z,0.14
2018-02-25T19:22:59.654Z,0.13
2018-02-25T19:25:27.238Z,0.04
2018-02-25T19:27:54.827Z,0.16
2018-02-25T19:30:22.502Z,0.24
2018-02-25T19:32:50.028Z,0.22
2018-02-25T19:35:17.565Z,0.21
2018-02-25T19:37:50.576Z,0.08
2018-02-25T19:40:23.702Z,0.04
2018-02-25T19:42:51.293Z,0.07
2018-02-25T19:45:18.819Z,0.06
2018-02-25T19:47:46.362Z,0.02
2018-02-25T19:50:14.346Z,-0.04
2018-02-25T19:52:41.882Z,-0.05
2018-02-25T19:55:09.401Z,-0.06
2018-02-25T19:57:36.929Z,-0.02
2018-02-25T20:00:04.463Z,0.03
2018-02-25T20:02:32.004Z,-0.01
2018-02-25T20:04:59.639Z,0.08
2018-02-25T20:07:27.223Z,0.10
2018-02-25T20:09:54.792Z,0.10
2018-02-25T20:12:22.419Z,0.13
2018-02-25T20:14:50.862Z,0.04
2018-02-25T20:17:18.471Z,-0.03
2018-02-25T20:19:45.972Z,-0.06
2018-02-25T20:22:13.710Z,-0.10
2018-02-25T20:24:41.351Z,-0.10
2018-02-25T20:27:08.930Z,-0.10
2018-02-25T20:29:36.482Z,-0.17
2018-02-25T20:32:04.005Z,-0.19
2018-02-25T20:34:31.550Z,-0.21
2018-02-25T20:36:59.138Z,-0.33
2018-02-25T20:39:26.664Z,-0.36
2018-02-25T20:41:54.164Z,-0.42
2018-02-25T20:44:22.579Z,-0.51
2018-02-25T20:46:50.086Z,-0.50
2018-02-25T20:49:17.646Z,-0.55
2018-02-25T20:51:45.201Z,-0.52
2018-02-25T20:54:12.708Z,-0.63
2018-02-25T20:56:40.218Z,-0.71
2018-02-25T20:59:07.712Z,-0.80
2018-02-25T21:01:35.254Z,-0.87
2018-02-25T21:04:02.798Z,-0.79
2018-02-25T21:06:30.317Z,-0.76
2018-02-25T21:08:57.829Z,-0.70
2018-02-25T21:11:25.346Z,-0.80
2018-02-25T21:13:52.878Z,-0.84
2018-02-25T21:16:20.388Z,-1.16
2018-02-25T21:18:47.927Z,-1.33
2018-02-25T21:21:15.447Z,-1.45
2018-02-25T21:23:42.974Z,-1.51
2018-02-25T21:26:10.463Z,-1.51
2018-02-25T21:28:38.006Z,-1.56
2018-02-25T21:31:05.503Z,-1.81
2018-02-25T21:33:33.058Z,-1.72
2018-02-25T21:36:00.597Z,-1.61
2018-02-25T21:38:28.179Z,-1.59
2018-02-25T21:40:55.718Z,-1.60
2018-02-25T21:43:23.217Z,-1.56
2018-02-25T21:45:50.798Z,-1.57
2018-02-25T21:48:18.467Z,-1.58
2018-02-25T21:50:45.977Z,-1.64
2018-02-25T21:53:14.293Z,-1.68
2018-02-25T21:58:48.335Z,-1.70
2018-02-25T22:01:21.445Z,-1.79
2018-02-25T22:03:48.990Z,-1.87
2018-02-25T22:06:16.559Z,-2.04
2018-02-25T22:08:44.075Z,-2.12
2018-02-25T22:11:11.663Z,-2.17
2018-02-25T22:13:39.216Z,-2.23
2018-02-25T22:16:06.706Z,-2.42
2018-02-25T22:18:34.333Z,-2.48
2018-02-25T22:21:01.852Z,-2.48
2018-02-25T22:23:29.426Z,-2.46
2018-02-25T22:25:57.058Z,-2.44
2018-02-25T22:28:24.578Z,-2.39
2018-02-25T22:30:52.096Z,-2.26
2018-02-25T22:33:19.600Z,-2.24
2018-02-25T22:35:47.208Z,-2.34
2018-02-25T22:38:14.735Z,-2.30
2018-02-25T22:40:42.350Z,-2.55
2018-02-25T22:43:10.017Z,-2.59
2018-02-25T22:45:37.499Z,-2.56
2018-02-25T22:48:05.072Z,-2.59
2018-02-25T22:50:32.627Z,-2.50
2018-02-25T22:53:00.752Z,-2.51
2018-02-25T22:55:28.254Z,-2.58
2018-02-25T22:57:55.935Z,-2.41
2018-02-25T23:00:23.448Z,-2.47
2018-02-25T23:02:50.950Z,-2.48
2018-02-25T23:05:18.539Z,-2.35
2018-02-25T23:07:46.088Z,-2.42
2018-02-25T23:10:13.649Z,-2.41
2018-02-25T23:12:41.205Z,-2.63
2018-02-25T23:15:08.712Z,-2.67
2018-02-25T23:17:36.248Z,-2.79
2018-02-25T23:20:03.725Z,-2.58
2018-02-25T23:22:31.278Z,-2.52
2018-02-25T23:24:58.791Z,-2.51
2018-02-25T23:27:26.357Z,-2.61
2018-02-25T23:29:53.855Z,-2.69
2018-02-25T23:32:21.352Z,-2.82
2018-02-25T23:34:48.992Z,-2.86
2018-02-25T23:37:16.514Z,-2.82
2018-02-25T23:39:44.022Z,-2.65
2018-02-25T23:42:11.519Z,-2.69
2018-02-25T23:44:39.085Z,-2.70
2018-02-25T23:47:06.674Z,-2.71
2018-02-25T23:49:34.190Z,-2.86
2018-02-25T23:52:01.736Z,-2.96
2018-02-25T23:54:29.392Z,-2.86
2018-02-25T23:56:57.001Z,-2.82
2018-02-25T23:59:24.543Z,-2.72
